Time;durP1;ratioP1;P1;durP2;ratioP2;P2;SDS_P1;SDS_P2;PMS_P1;PMS_P2;Temp;Humidity;BMP_temperature;BMP_pressure;BME280_temperature;BME280_humidity;BME280_pressure;Samples;Min_cycle;Max_cycle;Signal;HPM_P1;HPM_P2
2022/04/29 00:00:16;;;;;;;20.25;13.70;;;;;;;9.28;77.48;102152.53;5057013;28;20053;-79
2022/04/29 00:02:44;;;;;;;25.00;14.52;;;;;;;9.31;77.03;102149.69;5055560;28;20045;-79
2022/04/29 00:05:11;;;;;;;19.33;13.23;;;;;;;9.29;76.67;102146.38;5055055;28;20131;-79
2022/04/29 00:07:39;;;;;;;18.92;12.82;;;;;;;9.37;76.42;102157.09;5055185;28;20131;-78
2022/04/29 00:10:07;;;;;;;24.40;14.65;;;;;;;9.39;76.04;102163.03;5055975;28;20083;-80
2022/04/29 00:12:35;;;;;;;20.75;13.43;;;;;;;9.46;75.39;102145.94;5057838;28;20045;-78
2022/04/29 00:15:03;;;;;;;23.08;14.05;;;;;;;9.53;75.41;102151.56;5056978;28;20056;-78
2022/04/29 00:17:30;;;;;;;24.20;13.63;;;;;;;9.48;75.16;102149.28;5054687;28;20049;-78
2022/04/29 00:19:57;;;;;;;23.40;13.60;;;;;;;9.48;75.10;102145.84;5054696;28;20055;-78
2022/04/29 00:22:23;;;;;;;34.63;15.13;;;;;;;9.44;75.60;102142.66;5054669;28;20047;-78
2022/04/29 00:24:50;;;;;;;22.40;13.90;;;;;;;9.39;75.93;102136.91;5053634;28;20140;-78
2022/04/29 00:27:17;;;;;;;25.75;14.02;;;;;;;9.26;75.80;102149.19;5053875;28;20131;-78
2022/04/29 00:29:44;;;;;;;19.65;13.95;;;;;;;9.20;77.12;102141.78;5053621;28;20053;-78
2022/04/29 00:32:11;;;;;;;21.90;14.27;;;;;;;9.21;77.31;102139.06;5054024;28;20045;-78
2022/04/29 00:34:38;;;;;;;25.20;14.32;;;;;;;9.31;76.45;102144.47;5055947;28;20049;-79
2022/04/29 00:37:05;;;;;;;18.88;13.90;;;;;;;9.23;76.35;102134.56;5056363;28;20045;-79
2022/04/29 00:39:32;;;;;;;22.35;13.43;;;;;;;9.21;76.83;102146.06;5057556;28;20064;-81
2022/04/29 00:41:59;;;;;;;23.30;13.57;;;;;;;9.11;77.28;102143.28;5056499;28;20574;-78
2022/04/29 00:44:26;;;;;;;25.75;13.48;;;;;;;9.11;77.19;102145.06;5054031;28;20059;-79
2022/04/29 00:46:53;;;;;;;28.40;14.60;;;;;;;8.96;77.21;102128.72;5053565;28;20144;-79
2022/04/29 00:49:20;;;;;;;21.27;12.75;;;;;;;8.88;78.03;102131.88;5053949;28;20479;-78
2022/04/29 00:51:49;;;;;;;23.73;13.77;;;;;;;8.86;78.55;102122.50;5055255;28;20452;-79
2022/04/29 00:54:22;;;;;;;21.85;14.60;;;;;;;8.87;78.23;102113.72;5055316;28;20044;-79
2022/04/29 00:56:50;;;;;;;;;;;;;;;8.84;78.33;102111.31;5056116;28;20059;-78
2022/04/29 00:59:30;;;;;;;24.35;13.82;;;;;;;8.82;77.56;102111.44;5053857;28;20015;-79
2022/04/29 01:01:57;;;;;;;21.63;14.15;;;;;;;8.68;78.10;102103.72;5055112;28;20399;-79
2022/04/29 01:04:31;;;;;;;19.38;13.85;;;;;;;8.61;78.58;102103.31;5055386;28;20045;-80
2022/04/29 01:06:58;;;;;;;24.55;14.25;;;;;;;8.65;78.91;102101.34;5054820;28;20045;-79
2022/04/29 01:09:25;;;;;;;21.75;13.90;;;;;;;8.60;79.43;102100.81;5054049;28;20479;-79
2022/04/29 01:11:52;;;;;;;25.23;14.20;;;;;;;8.55;79.62;102101.13;5054368;28;20041;-79
2022/04/29 01:14:19;;;;;;;24.00;14.07;;;;;;;8.48;80.13;102099.09;5053800;28;20041;-79
2022/04/29 01:16:46;;;;;;;20.88;13.98;;;;;;;8.42;80.32;102102.97;5053800;28;20602;-78
2022/04/29 01:19:12;;;;;;;23.92;14.82;;;;;;;8.38;81.00;102090.22;5057207;28;20085;-79
2022/04/29 01:21:41;;;;;;;24.10;14.80;;;;;;;8.37;81.01;102092.00;5059465;28;20053;-78
2022/04/29 01:24:09;;;;;;;26.35;15.18;;;;;;;8.31;81.61;102080.19;5058974;28;20060;-79
2022/04/29 01:26:36;;;;;;;26.15;14.00;;;;;;;8.30;82.10;102083.72;5057616;28;20159;-79
2022/04/29 01:29:06;;;;;;;23.95;14.18;;;;;;;8.36;82.24;102077.28;5054577;28;20136;-79
2022/04/29 01:31:33;;;;;;;26.75;14.57;;;;;;;8.35;82.26;102086.06;5052131;28;20143;-78
2022/04/29 01:34:01;;;;;;;23.42;14.98;;;;;;;8.46;81.62;102087.94;5051471;28;20429;-78
2022/04/29 01:36:28;;;;;;;23.00;14.23;;;;;;;8.44;81.71;102084.59;5051609;28;20052;-78
2022/04/29 01:38:54;;;;;;;27.08;14.82;;;;;;;8.46;81.47;102086.16;5051303;28;20079;-78
2022/04/29 01:41:22;;;;;;;22.92;14.88;;;;;;;8.47;81.50;102090.44;5051749;28;20045;-78
2022/04/29 01:43:49;;;;;;;19.48;13.77;;;;;;;8.45;82.16;102075.81;5052279;28;20092;-78
2022/04/29 01:46:16;;;;;;;22.80;15.10;;;;;;;8.40;82.34;102088.34;5052676;28;20085;-78
2022/04/29 01:48:42;;;;;;;24.30;14.38;;;;;;;8.39;82.17;102082.31;5052316;28;20088;-78
2022/04/29 01:51:09;;;;;;;24.80;14.45;;;;;;;8.31;82.29;102080.19;5052489;28;20080;-78
2022/04/29 01:53:36;;;;;;;27.38;14.48;;;;;;;8.33;82.55;102072.28;5052245;28;20504;-78
2022/04/29 01:56:02;;;;;;;20.15;14.48;;;;;;;8.34;82.27;102073.13;5053106;28;20131;-78
2022/04/29 01:58:32;;;;;;;26.63;14.85;;;;;;;8.34;82.32;102078.34;5052569;28;20132;-79
2022/04/29 02:00:58;;;;;;;27.92;13.77;;;;;;;8.28;82.66;102075.19;5054205;28;20053;-78
2022/04/29 02:03:25;;;;;;;21.75;14.70;;;;;;;8.31;82.80;102069.75;5053637;28;20151;-79
2022/04/29 02:05:52;;;;;;;23.13;14.23;;;;;;;8.38;82.55;102074.59;5052340;28;20075;-77
2022/04/29 02:08:18;;;;;;;21.58;14.60;;;;;;;8.31;82.84;102074.13;5052510;28;20053;-78
2022/04/29 02:10:45;;;;;;;20.85;13.50;;;;;;;8.28;83.22;102069.97;5053036;28;20136;-78
2022/04/29 02:13:13;;;;;;;23.77;14.18;;;;;;;8.23;83.27;102072.06;5053989;28;20549;-78
2022/04/29 02:15:41;;;;;;;25.08;14.63;;;;;;;8.27;83.43;102070.06;5058919;28;20079;-79
2022/04/29 02:18:07;;;;;;;22.25;14.93;;;;;;;8.28;83.30;102080.41;5063976;28;20476;-79
2022/04/29 02:20:34;;;;;;;25.25;14.32;;;;;;;8.28;83.47;102072.56;5055816;28;20128;-80
2022/04/29 02:23:01;;;;;;;24.50;15.18;;;;;;;8.24;83.14;102071.13;5055057;28;20051;-80
2022/04/29 02:25:27;;;;;;;23.42;15.05;;;;;;;8.22;82.47;102065.16;5054130;28;20072;-80
2022/04/29 02:27:56;;;;;;;26.25;15.63;;;;;;;8.27;82.63;102065.69;5053191;28;20131;-77
2022/04/29 02:30:23;;;;;;;24.98;15.00;;;;;;;8.27;83.01;102063.09;5053162;28;20049;-79
2022/04/29 02:32:51;;;;;;;23.63;15.13;;;;;;;8.20;82.90;102050.56;5052857;28;20123;-79
2022/04/29 02:35:17;;;;;;;21.58;14.50;;;;;;;8.21;82.56;102055.69;5052645;28;20107;-79
2022/04/29 02:37:44;;;;;;;21.35;15.65;;;;;;;8.20;83.09;102056.63;5053493;28;20569;-79
2022/04/29 02:40:12;;;;;;;24.40;14.18;;;;;;;8.15;82.72;102053.50;5053053;28;20095;-79
2022/04/29 02:42:38;;;;;;;23.38;14.57;;;;;;;8.22;82.62;102057.34;5054203;28;20052;-80
2022/04/29 02:45:06;;;;;;;27.40;16.00;;;;;;;8.27;82.70;102052.66;5059201;28;20124;-80
2022/04/29 02:47:33;;;;;;;24.75;15.73;;;;;;;8.25;82.44;102053.69;5060851;28;20045;-80
2022/04/29 02:50:00;;;;;;;30.75;16.58;;;;;;;8.20;82.33;102056.63;5060420;28;20554;-80
2022/04/29 02:52:27;;;;;;;25.02;15.07;;;;;;;8.11;83.43;102054.63;5060269;28;20095;-79
2022/04/29 02:54:54;;;;;;;23.73;14.65;;;;;;;8.14;83.09;102057.03;5059083;28;20473;-80
2022/04/29 02:57:20;;;;;;;23.98;15.05;;;;;;;8.15;82.95;102058.69;5059295;28;20091;-80
2022/04/29 02:59:47;;;;;;;27.20;15.43;;;;;;;8.17;83.09;102056.81;5057919;28;20083;-80
2022/04/29 03:02:13;;;;;;;25.20;15.35;;;;;;;8.08;83.49;102054.84;5058944;28;20113;-81
2022/04/29 03:04:40;;;;;;;18.95;14.52;;;;;;;7.99;84.17;102065.94;5063077;28;20076;-81
2022/04/29 03:07:08;;;;;;;25.10;14.73;;;;;;;7.96;84.17;102063.53;5060966;28;20079;-80
2022/04/29 03:09:35;;;;;;;25.58;15.52;;;;;;;7.85;84.51;102064.25;5060081;28;20073;-80
2022/04/29 03:12:01;;;;;;;24.65;15.80;;;;;;;7.90;84.01;102056.94;5060584;28;20087;-80
2022/04/29 03:14:28;;;;;;;30.73;16.30;;;;;;;7.94;84.18;102057.59;5060643;28;20045;-81
2022/04/29 03:16:54;;;;;;;22.23;15.65;;;;;;;7.86;84.40;102063.31;5060764;28;20079;-81
2022/04/29 03:19:21;;;;;;;31.92;15.80;;;;;;;7.82;84.91;102055.81;5060645;28;20059;-80
2022/04/29 03:21:48;;;;;;;26.73;15.20;;;;;;;7.79;84.95;102051.63;5061141;28;20052;-80
2022/04/29 03:24:16;;;;;;;22.08;15.45;;;;;;;7.78;85.27;102062.16;5060549;28;20068;-80
2022/04/29 03:26:45;;;;;;;23.65;15.40;;;;;;;7.79;85.08;102062.06;5060626;28;20049;-80
2022/04/29 03:29:12;;;;;;;25.83;16.15;;;;;;;7.92;84.86;102055.06;5060135;28;20048;-81
2022/04/29 03:31:39;;;;;;;26.85;16.35;;;;;;;7.89;84.56;102051.84;5061635;28;20467;-81
2022/04/29 03:34:06;;;;;;;24.05;15.73;;;;;;;7.92;84.55;102049.03;5059289;28;20652;-78
2022/04/29 03:36:33;;;;;;;25.85;16.15;;;;;;;7.89;84.75;102055.28;5054756;28;20061;-79
2022/04/29 03:38:59;;;;;;;25.40;15.90;;;;;;;7.85;85.22;102050.38;5054954;28;20535;-78
2022/04/29 03:41:27;;;;;;;24.65;15.32;;;;;;;7.87;85.08;102051.94;5055876;28;20112;-78
2022/04/29 03:43:54;;;;;;;21.67;16.65;;;;;;;7.86;85.40;102057.25;5056183;28;20059;-79
2022/04/29 03:46:21;;;;;;;25.20;15.48;;;;;;;7.92;85.08;102054.25;5058829;28;20139;-79
2022/04/29 03:51:31;;;;;;;23.88;15.88;;;;;;;7.81;85.77;102054.97;5058282;28;20529;-79
2022/04/29 03:53:58;;;;;;;22.90;16.50;;;;;;;7.81;86.07;102043.72;5057711;28;20538;-78
2022/04/29 03:56:26;;;;;;;27.00;16.00;;;;;;;7.83;86.08;102044.44;5053641;28;20049;-78
2022/04/29 03:58:53;;;;;;;25.23;16.20;;;;;;;7.78;86.43;102049.13;5055175;28;20052;-78
2022/04/29 04:01:19;;;;;;;25.63;16.10;;;;;;;7.81;85.97;102044.53;5055267;28;20439;-80
2022/04/29 04:03:46;;;;;;;27.05;16.50;;;;;;;7.82;85.98;102045.38;5054637;28;20084;-78
2022/04/29 04:08:57;;;;;;;27.13;16.35;;;;;;;7.78;86.54;102046.53;5054595;28;20494;-78
2022/04/29 04:11:23;;;;;;;23.23;16.52;;;;;;;7.81;86.23;102041.94;5054635;28;20131;-79
2022/04/29 04:13:51;;;;;;;28.65;16.10;;;;;;;7.82;86.93;102041.00;5054266;28;20135;-78
2022/04/29 04:16:18;;;;;;;25.52;16.88;;;;;;;7.88;86.73;102048.41;5053865;28;20053;-78
2022/04/29 04:18:44;;;;;;;27.90;16.88;;;;;;;7.79;86.74;102056.00;5053865;28;20049;-78
2022/04/29 04:21:13;;;;;;;25.70;17.58;;;;;;;7.68;87.17;102054.13;5054686;28;20091;-78
2022/04/29 04:23:39;;;;;;;26.65;16.42;;;;;;;7.69;87.15;102049.75;5054401;28;20132;-78
2022/04/29 04:28:44;;;;;;;29.02;17.60;;;;;;;7.59;87.35;102050.34;5115586;23;20117;-81
2022/04/29 04:31:25;;;;;;;27.10;16.55;;;;;;;7.53;87.86;102040.34;5103873;28;20113;-81
2022/04/29 04:33:58;;;;;;;23.30;16.73;;;;;;;7.64;87.80;102048.28;5106977;28;20050;-81
2022/04/29 04:36:24;;;;;;;27.50;17.88;;;;;;;7.73;87.66;102053.81;5105442;28;20055;-82
2022/04/29 04:38:51;;;;;;;25.92;17.05;;;;;;;7.76;87.42;102053.59;5087606;28;20044;-81
2022/04/29 04:41:18;;;;;;;28.00;17.00;;;;;;;7.70;87.52;102043.59;5088954;28;20120;-82
2022/04/29 04:43:45;;;;;;;26.85;16.90;;;;;;;7.84;86.74;102059.13;5084188;28;20052;-79
2022/04/29 04:46:20;;;;;;;28.35;17.05;;;;;;;7.76;87.53;102051.00;5081454;28;20084;-81
2022/04/29 04:48:58;;;;;;;27.80;18.08;;;;;;;7.76;87.48;102048.38;5080433;28;20040;-81
2022/04/29 04:51:39;;;;;;;26.30;17.20;;;;;;;7.84;86.89;102053.94;5079623;28;20074;-81
2022/04/29 04:54:08;;;;;;;31.40;18.00;;;;;;;7.88;86.77;102055.38;5077009;28;20110;-81
2022/04/29 04:56:38;;;;;;;29.42;17.63;;;;;;;7.92;86.56;102054.25;5077115;28;20063;-81
2022/04/29 04:59:21;;;;;;;29.02;18.45;;;;;;;7.83;87.19;102037.44;5076298;28;20108;-80
2022/04/29 05:02:18;;;;;;;29.45;17.75;;;;;;;7.92;86.98;102042.06;5077195;28;20048;-82
2022/04/29 05:04:45;;;;;;;28.20;17.85;;;;;;;8.02;86.25;102039.66;5073742;28;20471;-81
2022/04/29 05:07:12;;;;;;;29.52;19.35;;;;;;;8.10;85.81;102044.31;5074811;28;20103;-80
2022/04/29 05:09:42;;;;;;;27.98;19.40;;;;;;;8.15;85.76;102056.09;5073699;28;20158;-79
2022/04/29 05:12:09;;;;;;;29.35;18.85;;;;;;;8.20;85.96;102051.41;5074524;28;20045;-79
2022/04/29 05:14:36;;;;;;;31.25;20.55;;;;;;;8.28;84.95;102053.47;5074622;28;20097;-78
2022/04/29 05:17:05;;;;;;;29.90;18.58;;;;;;;8.38;85.26;102053.72;5074301;28;20052;-79
2022/04/29 05:19:32;;;;;;;28.17;18.52;;;;;;;8.42;85.57;102050.78;5073883;28;20143;-79
2022/04/29 05:21:58;;;;;;;35.03;21.15;;;;;;;8.56;84.51;102057.63;5075456;28;20075;-79
2022/04/29 05:24:25;;;;;;;30.77;19.40;;;;;;;8.68;84.22;102059.38;5076241;28;20113;-80
2022/04/29 05:26:51;;;;;;;35.75;19.85;;;;;;;8.68;83.44;102061.16;5074713;28;20112;-80
2022/04/29 05:29:18;;;;;;;32.90;20.02;;;;;;;8.63;84.62;102057.09;5075031;28;20155;-79
2022/04/29 05:31:45;;;;;;;34.83;20.83;;;;;;;8.71;84.07;102061.75;5076623;28;20048;-79
2022/04/29 05:34:13;;;;;;;33.53;20.65;;;;;;;8.84;83.77;102064.34;5076139;28;20523;-80
2022/04/29 05:36:40;;;;;;;32.78;20.48;;;;;;;8.92;84.07;102067.25;5076490;28;20076;-79
2022/04/29 05:44:35;;;;;;;31.42;21.77;;;;;;;9.12;82.60;102066.63;5078379;28;20055;-79
2022/04/29 05:47:02;;;;;;;30.20;21.48;;;;;;;9.18;82.93;102070.56;5072848;28;20118;-79
2022/04/29 05:49:30;;;;;;;30.05;20.48;;;;;;;9.33;82.44;102066.84;5072978;28;20168;-78
2022/04/29 05:51:56;;;;;;;31.38;21.55;;;;;;;9.40;81.70;102069.84;5072127;28;20741;-79
2022/04/29 05:54:23;;;;;;;29.27;20.10;;;;;;;9.39;82.37;102062.94;5071517;28;20048;-79
2022/04/29 05:56:49;;;;;;;33.15;21.30;;;;;;;9.51;81.86;102054.16;5070741;28;20095;-78
2022/04/29 05:59:16;;;;;;;28.77;20.48;;;;;;;9.64;81.75;102050.53;5072694;28;20095;-78
2022/04/29 06:01:43;;;;;;;31.13;22.00;;;;;;;9.70;81.38;102054.47;5074425;28;20424;-78
2022/04/29 06:04:10;;;;;;;31.70;21.58;;;;;;;9.77;80.49;102055.66;5073652;28;20052;-78
2022/04/29 06:06:38;;;;;;;34.22;21.95;;;;;;;9.95;79.55;102049.03;5072563;28;20068;-76
2022/04/29 06:09:04;;;;;;;29.15;21.45;;;;;;;10.07;78.37;102047.25;5069022;28;20095;-77
2022/04/29 06:11:31;;;;;;;33.42;21.73;;;;;;;10.20;78.53;102048.00;5071450;28;20455;-77
2022/04/29 06:13:58;;;;;;;28.48;21.08;;;;;;;10.07;77.94;102049.88;5073536;28;20056;-77
2022/04/29 06:16:24;;;;;;;28.17;21.27;;;;;;;10.33;76.92;102052.28;5069270;28;20048;-77
2022/04/29 06:18:54;;;;;;;32.45;20.15;;;;;;;10.63;75.29;102048.09;5069152;28;20057;-77
2022/04/29 06:24:08;;;;;;;33.53;20.95;;;;;;;10.85;73.04;102051.63;5070962;28;20520;-78
2022/04/29 06:26:40;;;;;;;34.08;20.65;;;;;;;10.88;72.80;102046.94;5069235;28;20056;-79
2022/04/29 06:35:19;;;;;;;27.20;19.52;;;;;;;10.58;73.83;102052.00;5071170;28;20179;-78
2022/04/29 06:37:55;;;;;;;31.77;20.88;;;;;;;10.39;74.69;102049.19;5052134;28;20041;-79
2022/04/29 06:43:30;;;;;;;28.25;20.00;;;;;;;10.54;74.27;102071.53;5046240;28;20091;-80
2022/04/29 06:46:27;;;;;;;29.48;19.77;;;;;;;10.54;73.85;102077.59;5061561;28;20074;-78
2022/04/29 06:49:05;;;;;;;31.17;20.30;;;;;;;10.77;74.11;102075.78;5074874;28;20052;-79
2022/04/29 06:51:52;;;;;;;24.90;19.63;;;;;;;10.98;74.35;102076.66;5074552;28;20052;-78
2022/04/29 06:54:18;;;;;;;26.10;20.67;;;;;;;10.85;75.24;102062.94;5074599;28;20056;-78
2022/04/29 06:56:46;;;;;;;32.30;20.85;;;;;;;11.42;74.72;102085.31;5076003;28;20455;-78
2022/04/29 06:59:13;;;;;;;34.47;21.38;;;;;;;11.55;75.34;102093.00;5072283;28;20052;-77
2022/04/29 07:01:39;;;;;;;33.08;21.38;;;;;;;11.59;73.94;102090.00;5073783;28;20045;-78
2022/04/29 07:04:06;;;;;;;26.83;20.00;;;;;;;11.94;74.42;102094.13;5074577;28;20052;-79
2022/04/29 07:06:33;;;;;;;28.90;21.75;;;;;;;12.00;72.89;102082.28;5074758;28;20108;-78
2022/04/29 07:09:00;;;;;;;31.23;21.17;;;;;;;11.87;73.43;102091.19;5076951;28;20052;-79
2022/04/29 07:11:27;;;;;;;30.08;22.17;;;;;;;12.05;73.14;102083.56;5076015;28;20110;-78
2022/04/29 07:13:55;;;;;;;33.40;22.77;;;;;;;12.29;72.70;102084.06;5076557;28;20116;-77
2022/04/29 07:16:21;;;;;;;30.85;21.33;;;;;;;12.40;71.22;102080.53;5074637;28;20538;-78
2022/04/29 07:18:48;;;;;;;30.48;21.30;;;;;;;12.39;71.89;102088.53;5077124;28;20068;-78
2022/04/29 07:21:14;;;;;;;29.27;20.65;;;;;;;12.77;70.83;102088.66;5074805;28;20052;-77
2022/04/29 07:23:41;;;;;;;29.50;20.83;;;;;;;13.34;68.72;102097.59;5074812;28;20139;-78
2022/04/29 07:26:08;;;;;;;28.85;21.17;;;;;;;13.23;67.64;102093.31;5075479;28;20040;-78
2022/04/29 07:28:35;;;;;;;31.58;21.38;;;;;;;13.15;67.38;102087.06;5081742;28;20072;-78
2022/04/29 07:31:03;;;;;;;29.58;21.77;;;;;;;13.76;65.55;102077.06;5077138;28;20048;-78
2022/04/29 07:33:30;;;;;;;28.92;21.25;;;;;;;13.21;66.83;102084.75;5085757;28;20059;-78
2022/04/29 07:44:09;;;;;;;28.98;21.35;;;;;;;13.34;66.24;102079.19;5077100;28;20060;-78
2022/04/29 07:46:37;;;;;;;27.13;20.98;;;;;;;13.57;65.69;102072.69;5077113;28;20127;-78
2022/04/29 07:49:04;;;;;;;29.17;20.88;;;;;;;13.72;64.81;102067.81;5076661;28;20095;-78
2022/04/29 07:51:31;;;;;;;30.40;20.85;;;;;;;13.66;64.91;102072.81;5076091;28;20062;-78
2022/04/29 07:53:57;;;;;;;30.20;21.60;;;;;;;13.69;64.97;102069.91;5076725;28;20139;-78
2022/04/29 07:56:24;;;;;;;31.38;20.33;;;;;;;13.79;64.50;102071.53;5076053;28;20050;-78
2022/04/29 07:58:51;;;;;;;27.05;21.50;;;;;;;13.63;65.68;102067.84;5075448;28;20148;-78
2022/04/29 08:01:17;;;;;;;25.13;20.38;;;;;;;13.93;64.86;102078.16;5075997;28;20132;-78
2022/04/29 08:03:45;;;;;;;33.90;20.73;;;;;;;13.78;65.54;102075.13;5075384;28;20123;-78
2022/04/29 08:06:13;;;;;;;31.40;21.42;;;;;;;13.51;65.85;102086.41;5074840;28;20086;-78
2022/04/29 08:08:39;;;;;;;29.92;21.88;;;;;;;13.32;67.21;102078.50;5078196;28;20055;-80
2022/04/29 08:11:07;;;;;;;32.17;21.65;;;;;;;13.53;66.60;102083.63;5078663;28;20068;-81
2022/04/29 08:13:36;;;;;;;31.27;21.90;;;;;;;13.38;65.92;102083.22;5086832;28;20048;-80
2022/04/29 08:16:03;;;;;;;36.25;24.08;;;;;;;13.47;66.30;102094.69;5089028;28;20050;-79
2022/04/29 08:18:35;;;;;;;39.28;25.48;;;;;;;13.29;66.84;102079.63;5086446;28;20048;-80
2022/04/29 08:21:06;;;;;;;31.90;23.45;;;;;;;13.55;65.01;102079.91;5083153;28;20426;-79
2022/04/29 08:23:32;;;;;;;28.58;22.02;;;;;;;13.47;62.06;102077.13;5082576;28;20048;-79
2022/04/29 08:25:59;;;;;;;29.85;22.50;;;;;;;13.24;65.69;102071.31;5078402;28;20350;-80
2022/04/29 08:28:28;;;;;;;32.22;21.80;;;;;;;13.47;65.66;102081.56;5078753;28;20104;-79
2022/04/29 08:30:54;;;;;;;32.15;22.42;;;;;;;13.53;64.92;102076.56;5097832;28;20068;-79
2022/04/29 08:33:22;;;;;;;39.63;28.90;;;;;;;13.48;66.50;102076.16;5074649;28;20068;-79
2022/04/29 08:35:48;;;;;;;49.20;35.10;;;;;;;13.50;65.15;102076.84;5087788;28;20052;-79
2022/04/29 08:38:19;;;;;;;51.63;36.67;;;;;;;13.49;66.69;102075.19;5075943;28;20055;-79
2022/04/29 08:40:47;;;;;;;39.65;26.17;;;;;;;13.43;68.07;102075.75;5076295;28;20071;-79
2022/04/29 08:43:15;;;;;;;34.30;23.23;;;;;;;13.65;65.65;102079.06;5076384;28;20052;-80
2022/04/29 08:45:43;;;;;;;31.35;22.73;;;;;;;13.64;64.42;102072.13;5076143;28;20045;-78
2022/04/29 08:48:10;;;;;;;27.60;20.88;;;;;;;13.79;63.47;102070.69;5073188;28;20071;-79
2022/04/29 08:50:37;;;;;;;30.80;19.92;;;;;;;13.93;64.55;102068.47;5075639;28;20127;-80
2022/04/29 08:53:04;;;;;;;29.60;21.08;;;;;;;13.91;65.49;102074.84;5068589;28;20554;-79
2022/04/29 09:01:04;;;;;;;27.58;20.55;;;;;;;13.61;64.51;102062.72;5069718;28;20066;-80
2022/04/29 09:03:31;;;;;;;33.40;23.13;;;;;;;13.73;66.59;102072.09;5061042;28;20148;-80
2022/04/29 09:05:58;;;;;;;29.40;23.63;;;;;;;13.98;65.92;102077.72;5066293;28;20075;-79
2022/04/29 09:08:25;;;;;;;33.67;24.20;;;;;;;13.99;66.13;102071.50;5071086;28;20120;-80
2022/04/29 09:10:55;;;;;;;30.98;23.10;;;;;;;14.26;65.74;102067.09;5066427;28;20063;-80
2022/04/29 09:13:27;;;;;;;36.35;24.85;;;;;;;14.33;65.31;102069.13;5063723;28;20053;-81
2022/04/29 09:15:57;;;;;;;33.10;24.08;;;;;;;14.82;64.69;102074.03;5071020;28;20037;-79
2022/04/29 09:18:34;;;;;;;31.85;24.30;;;;;;;14.66;63.56;102071.19;5069705;28;20036;-79
2022/04/29 09:21:07;;;;;;;31.27;24.40;;;;;;;14.39;64.54;102068.56;5083737;28;20112;-79
2022/04/29 09:23:35;;;;;;;34.35;26.02;;;;;;;14.64;64.75;102067.09;5080445;28;20087;-80
2022/04/29 09:26:05;;;;;;;35.72;24.95;;;;;;;14.90;63.38;102068.00;5077368;28;20097;-80
2022/04/29 09:28:33;;;;;;;36.00;27.05;;;;;;;14.75;65.05;102065.06;5077883;28;20048;-79
2022/04/29 09:31:01;;;;;;;37.00;25.70;;;;;;;15.06;64.44;102067.34;5079782;28;20423;-79
2022/04/29 09:33:29;;;;;;;43.22;27.17;;;;;;;15.48;63.61;102063.09;5077929;28;20136;-80
2022/04/29 09:35:56;;;;;;;33.63;26.13;;;;;;;15.49;64.05;102064.75;5073242;28;20053;-80
2022/04/29 09:41:09;;;;;;;29.42;23.17;;;;;;;15.75;62.00;102053.41;5076448;28;20051;-80
2022/04/29 09:43:38;;;;;;;28.65;23.67;;;;;;;15.44;62.41;102056.47;5077775;28;20068;-81
2022/04/29 09:46:19;;;;;;;33.85;22.60;;;;;;;16.04;59.37;102047.81;5078112;28;20113;-79
2022/04/29 09:49:00;;;;;;;30.00;22.05;;;;;;;16.67;57.46;102050.88;5081854;28;20132;-80
2022/04/29 09:51:51;;;;;;;32.65;23.92;;;;;;;16.60;60.48;102060.41;5084276;28;20049;-79
2022/04/29 09:54:21;;;;;;;34.28;24.33;;;;;;;15.91;59.82;102058.78;5081015;28;20044;-79
2022/04/29 09:57:06;;;;;;;31.95;23.05;;;;;;;15.39;60.52;102056.09;5086534;28;20131;-79
2022/04/29 09:59:34;;;;;;;32.33;22.88;;;;;;;14.74;62.54;102046.75;5086237;28;20088;-79
2022/04/29 10:02:02;;;;;;;29.77;24.38;;;;;;;15.15;61.83;102053.25;5086546;28;20049;-79
2022/04/29 10:04:32;;;;;;;35.63;24.90;;;;;;;15.16;62.13;102061.00;5084880;28;20067;-80
2022/04/29 10:07:00;;;;;;;34.40;25.35;;;;;;;15.53;62.83;102060.00;5083575;28;20053;-79
2022/04/29 10:09:33;;;;;;;34.40;25.58;;;;;;;15.26;63.48;102051.22;5077911;28;20049;-80
2022/04/29 10:12:04;;;;;;;33.08;24.83;;;;;;;15.22;64.42;102052.50;5081884;28;20051;-79
2022/04/29 10:14:32;;;;;;;33.42;24.67;;;;;;;15.39;62.96;102057.91;5079554;28;20135;-79
2022/04/29 10:22:41;;;;;;;33.08;22.80;;;;;;;15.64;60.73;102051.03;5075469;28;20052;-79
2022/04/29 10:25:09;;;;;;;30.17;22.92;;;;;;;15.38;60.82;102046.53;5066626;28;20055;-79
2022/04/29 10:27:42;;;;;;;34.90;23.45;;;;;;;15.54;61.17;102053.75;5075725;28;20104;-79
2022/04/29 10:30:25;;;;;;;30.77;21.45;;;;;;;15.89;61.30;102056.31;5077152;28;20041;-78
2022/04/29 10:33:07;;;;;;;32.22;21.77;;;;;;;16.01;59.16;102051.59;5074426;28;20052;-78
2022/04/29 10:35:53;;;;;;;30.10;20.45;;;;;;;15.95;58.38;102049.59;5071503;28;20049;-77
2022/04/29 10:38:24;;;;;;;30.67;20.33;;;;;;;16.21;59.44;102050.34;5071069;28;20411;-78
2022/04/29 10:41:27;;;;;;;29.35;21.48;;;;;;;16.31;58.64;102044.97;5077603;28;20041;-77
2022/04/29 10:44:07;;;;;;;32.97;19.42;;;;;;;16.73;57.26;102038.84;5067095;28;20505;-77
2022/04/29 10:46:37;;;;;;;27.65;19.95;;;;;;;16.58;55.97;102041.22;5077301;28;20200;-78
2022/04/29 10:49:30;;;;;;;28.40;19.25;;;;;;;16.68;55.77;102041.13;5066528;28;20045;-79
2022/04/29 10:51:59;;;;;;;25.37;18.33;;;;;;;16.43;56.51;102027.00;5091395;22;20048;-77
2022/04/29 10:54:46;;;;;;;25.38;18.95;;;;;;;16.71;56.43;102040.81;5107315;28;20296;-76
2022/04/29 10:57:17;;;;;;;26.92;17.98;;;;;;;16.85;55.62;102037.53;5105030;28;20070;-76
2022/04/29 10:59:53;;;;;;;26.08;18.38;;;;;;;16.91;54.79;102036.91;5105581;28;20142;-76
2022/04/29 11:02:30;;;;;;;26.80;18.67;;;;;;;16.82;55.56;102033.41;5098749;28;20044;-77
2022/04/29 11:04:58;;;;;;;29.48;18.60;;;;;;;16.64;55.24;102026.56;5091328;28;20048;-77
2022/04/29 11:07:46;;;;;;;23.58;17.20;;;;;;;16.51;55.46;102027.03;5094659;28;20039;-77
2022/04/29 11:10:19;;;;;;;25.77;17.63;;;;;;;16.57;55.00;102019.25;5105379;28;20079;-77
2022/04/29 11:12:57;;;;;;;30.85;17.95;;;;;;;16.84;54.41;102018.22;5107140;28;20055;-77
2022/04/29 11:15:40;;;;;;;23.98;16.75;;;;;;;16.73;53.75;102021.16;5115556;28;20048;-77
2022/04/29 11:18:14;;;;;;;;;;;;;;;16.35;53.27;102011.13;5115702;28;20715;-77
2022/04/29 11:20:42;;;;;;;26.77;16.42;;;;;;;16.58;54.25;102014.81;5115751;28;20293;-78
2022/04/29 11:25:56;;;;;;;26.10;16.95;;;;;;;16.67;53.37;102003.31;5116128;28;20073;-77
2022/04/29 11:28:23;;;;;;;20.40;16.13;;;;;;;16.64;52.29;102008.06;5114801;28;20326;-77
2022/04/29 11:30:59;;;;;;;18.63;14.82;;;;;;;16.34;52.50;102002.38;5115694;28;20050;-78
2022/04/29 11:33:26;;;;;;;24.75;15.82;;;;;;;17.10;50.86;102001.34;5115968;28;20047;-77
2022/04/29 11:35:57;;;;;;;24.08;15.75;;;;;;;16.74;50.65;102004.31;5115511;28;20266;-78
2022/04/29 11:38:24;;;;;;;23.55;15.73;;;;;;;17.04;51.53;101999.38;5114739;28;20064;-77
2022/04/29 11:40:52;;;;;;;22.92;15.45;;;;;;;17.34;50.02;101985.47;5115292;28;20051;-77
2022/04/29 11:43:23;;;;;;;24.65;16.02;;;;;;;17.15;49.95;101994.56;5115984;28;20055;-78
2022/04/29 11:46:05;;;;;;;23.17;15.55;;;;;;;16.84;50.21;101989.13;5116233;27;20044;-78
2022/04/29 11:48:33;;;;;;;20.73;15.35;;;;;;;16.99;50.71;101988.50;5117077;28;20056;-78
2022/04/29 11:50:59;;;;;;;22.20;14.90;;;;;;;17.19;51.30;101987.97;5117390;27;20066;-78
2022/04/29 11:53:26;;;;;;;22.17;14.43;;;;;;;17.76;49.65;101973.84;5136820;27;20051;-78
2022/04/29 11:55:54;;;;;;;22.73;15.02;;;;;;;17.34;49.71;101974.91;5136967;27;20585;-80
2022/04/29 11:58:20;;;;;;;21.02;15.82;;;;;;;17.07;50.88;101975.22;5138897;27;20043;-78
2022/04/29 12:00:51;;;;;;;24.65;15.35;;;;;;;17.16;50.19;101971.59;5135732;27;20130;-79
2022/04/29 12:03:24;;;;;;;21.70;14.55;;;;;;;17.57;50.17;101978.47;5135854;27;20047;-77
2022/04/29 12:05:51;;;;;;;22.58;15.40;;;;;;;18.03;48.74;101964.63;5135392;27;20047;-78
2022/04/29 12:08:18;;;;;;;21.17;14.65;;;;;;;17.53;47.96;101971.88;5134749;27;20043;-79
2022/04/29 12:10:46;;;;;;;20.42;15.27;;;;;;;17.37;47.84;101961.34;5135403;27;20151;-77
2022/04/29 12:13:13;;;;;;;20.55;14.75;;;;;;;17.98;48.04;101962.47;5135544;27;20438;-77